Huvudsida
METAR-TAF:

METAR-TAF

Flygplatser :

Princess Juliana internationella flygplats

Sint Maarten, Nederländska Antillerna

latitud: 18-03N, longitud: 063-07W, höjd: 4 m

Aktuellt väderrapport

Denna rapport gjordes för 46 minuter sedan, klockan 09:00 UTC
Vind 11 kt från ost, varierande mellan nordost och ost/sydost
Temperatur 28°C
Fuktighet 79%
Tryck 1015 hPa
Sikt 10 km eller mer
Spridda moln på en höjd av 1800 ft

METAR: TNCM 250900Z 08011KT 050V110 9999 SCT018 28/24 Q1014 A2997

Tid: 05:46 (09:46 UTC)

Väderprognos

Denna rapport gjordes för 4 timmar och 16 minuter sedan, klockan 05:30 UTC
Prognos gäller från 25 kl. 06 UTC till 26 kl. 06 UTC
Vind 9 kt från ost
Sikt: 10 km
Spridda moln på en höjd av 1800 ft, Cumulonimbus.
åska i närheten
Från 25 kl. 1450 UTC
Vind 14 kt från ost
Sikt: 10 km
Spridda moln på en höjd av 2200 ft
Brutna moln på en höjd av 6000 ft
skurar i närheten

TAF: TNCM 250530Z 2506/2606 08009KT P6SM VCTS SCT018CB FM251450 10014KT P6SM VCSH SCT022 BKN060

Aktuella väderrapporter och prognoser från 4000 flygplatser (METAR- och TAF-rapporter).

De tillgängliga stationerna syns som gula och röda prickar på kartan.

För musen över prickarna för att se namnen på stationerna.

Klicka sedan för att få väderrapporter och prognoser.

För att ändra kartan: Klicka på de gröna knapparna med ett svart kors på för att zooma in; den gröna knappen med ett streck på för att zooma ut; eller på de gröna pilarna för angränsande kartor.


METAR-TAF: